Terminal Aerodrome Forecast
Issued by NWS Duluth, MN

Home | Current Version | Previous Version | Text Only | Print | Product List | Glossary On
Versions: 1 2 3 4 5 6 7 8 9 10 11 12 13 14 15 16 17 18 19 20 21 22 23 24 25 26 27 28 29 30 31 32
000
FTUS43 KDLH 211317 AAB
TAFDLH
TAF AMD
KDLH 211317Z 2113/2212 27009KT 1/4SM FG OVC002
     FM211400 25004KT 1/2SM FG BKN003
     FM211500 25004KT 3/4SM BR BKN003
     FM212000 21007KT P6SM SCT250
     FM220100 VRB05KT P6SM BKN070=

USA.gov is the U.S. government's official web portal to all federal, state and local government web resources and services.